sensor_id;sensor_type;location;lat;lon;timestamp;pressure;altitude;pressure_sealevel;temperature;humidity
9129;BME280;4599;50.906;6.786;2023-03-14T00:02:25;15196.25;;;-142.83;74.69
9129;BME280;4599;50.906;6.786;2023-03-14T00:06:26;15181.94;;;-142.83;74.90
9129;BME280;4599;50.906;6.786;2023-03-14T00:10:29;15183.97;;;-142.83;74.85
9129;BME280;4599;50.906;6.786;2023-03-14T00:14:32;15192.16;;;-142.83;75.51
9129;BME280;4599;50.906;6.786;2023-03-14T00:18:34;15188.06;;;-142.83;74.11
9129;BME280;4599;50.906;6.786;2023-03-14T00:22:37;15212.59;;;-142.83;73.84
9129;BME280;4599;50.906;6.786;2023-03-14T00:26:38;15226.91;;;-142.83;73.57
9129;BME280;4599;50.906;6.786;2023-03-14T00:30:42;15214.66;;;-142.83;73.52
9129;BME280;4599;50.906;6.786;2023-03-14T00:34:44;15253.50;;;-142.83;72.19
9129;BME280;4599;50.906;6.786;2023-03-14T00:38:47;15235.09;;;-142.83;72.85
9129;BME280;4599;50.906;6.786;2023-03-14T00:42:49;15222.81;;;-142.83;73.04
9129;BME280;4599;50.906;6.786;2023-03-14T00:46:53;15233.03;;;-142.83;72.79
9129;BME280;4599;50.906;6.786;2023-03-14T00:50:54;15269.84;;;-142.83;72.12
9129;BME280;4599;50.906;6.786;2023-03-14T00:54:56;15239.19;;;-142.83;72.98
9129;BME280;4599;50.906;6.786;2023-03-14T00:58:57;15257.56;;;-142.83;71.60
9129;BME280;4599;50.906;6.786;2023-03-14T01:03:15;15245.31;;;-142.83;72.57
9129;BME280;4599;50.906;6.786;2023-03-14T01:07:17;15173.75;;;-142.83;76.38
9129;BME280;4599;50.906;6.786;2023-03-14T01:11:20;15102.22;;;-142.83;81.90
9129;BME280;4599;50.906;6.786;2023-03-14T01:15:22;15065.41;;;-142.83;85.19
9129;BME280;4599;50.906;6.786;2023-03-14T01:19:25;15042.94;;;-142.83;87.29
9129;BME280;4599;50.906;6.786;2023-03-14T01:23:27;15049.06;;;-142.83;88.13
9129;BME280;4599;50.906;6.786;2023-03-14T01:27:28;15028.63;;;-142.83;89.08
9129;BME280;4599;50.906;6.786;2023-03-14T01:31:30;15028.63;;;-142.83;88.92
9129;BME280;4599;50.906;6.786;2023-03-14T01:35:33;15016.34;;;-142.83;88.33
9129;BME280;4599;50.906;6.786;2023-03-14T01:39:36;15000.00;;;-142.83;89.78
9129;BME280;4599;50.906;6.786;2023-03-14T01:43:37;15028.63;;;-142.83;88.25
9129;BME280;4599;50.906;6.786;2023-03-14T01:47:39;15049.06;;;-142.83;86.90
9129;BME280;4599;50.906;6.786;2023-03-14T01:51:46;15044.97;;;-142.83;88.17
9129;BME280;4599;50.906;6.786;2023-03-14T01:55:52;15032.72;;;-142.83;88.89
9129;BME280;4599;50.906;6.786;2023-03-14T01:59:57;15042.94;;;-142.83;88.62
9129;BME280;4599;50.906;6.786;2023-03-14T02:04:01;15040.88;;;-142.83;88.86
9129;BME280;4599;50.906;6.786;2023-03-14T02:08:07;14991.81;;;-142.83;88.66
9129;BME280;4599;50.906;6.786;2023-03-14T02:12:12;15032.72;;;-142.83;87.15
9129;BME280;4599;50.906;6.786;2023-03-14T02:16:15;15008.19;;;-142.83;87.97
9129;BME280;4599;50.906;6.786;2023-03-14T02:20:27;15032.72;;;-142.83;88.68
9129;BME280;4599;50.906;6.786;2023-03-14T02:24:35;15020.44;;;-142.83;88.92
9129;BME280;4599;50.906;6.786;2023-03-14T02:28:41;15028.63;;;-142.83;88.25
9129;BME280;4599;50.906;6.786;2023-03-14T02:32:46;15020.44;;;-142.83;89.46
9129;BME280;4599;50.906;6.786;2023-03-14T02:36:48;15016.34;;;-142.83;88.44
9129;BME280;4599;50.906;6.786;2023-03-14T02:40:51;15012.28;;;-142.83;89.10
9129;BME280;4599;50.906;6.786;2023-03-14T02:45:00;14991.81;;;-142.83;88.28
9129;BME280;4599;50.906;6.786;2023-03-14T02:49:04;15014.31;;;-142.83;89.79
9129;BME280;4599;50.906;6.786;2023-03-14T02:53:07;15030.66;;;-142.83;89.25
9129;BME280;4599;50.906;6.786;2023-03-14T02:57:09;15034.75;;;-142.83;88.98
9129;BME280;4599;50.906;6.786;2023-03-14T03:01:12;15026.56;;;-142.83;89.07
9129;BME280;4599;50.906;6.786;2023-03-14T03:05:14;15059.28;;;-142.83;88.11
9129;BME280;4599;50.906;6.786;2023-03-14T03:09:16;15032.72;;;-142.83;87.41
9129;BME280;4599;50.906;6.786;2023-03-14T03:13:17;15073.59;;;-142.83;87.75
9129;BME280;4599;50.906;6.786;2023-03-14T03:17:20;15024.53;;;-142.83;87.64
9129;BME280;4599;50.906;6.786;2023-03-14T03:21:21;15081.78;;;-142.83;86.55
9129;BME280;4599;50.906;6.786;2023-03-14T03:25:23;15077.69;;;-142.83;86.79
9129;BME280;4599;50.906;6.786;2023-03-14T03:29:24;15044.97;;;-142.83;86.25
9129;BME280;4599;50.906;6.786;2023-03-14T03:33:27;15063.38;;;-142.83;85.51
9129;BME280;4599;50.906;6.786;2023-03-14T03:37:30;15069.50;;;-142.83;83.73
9129;BME280;4599;50.906;6.786;2023-03-14T03:41:31;15083.81;;;-142.83;84.34
9129;BME280;4599;50.906;6.786;2023-03-14T03:45:34;15094.03;;;-142.83;82.66
9129;BME280;4599;50.906;6.786;2023-03-14T03:49:36;15094.03;;;-142.83;82.85
9129;BME280;4599;50.906;6.786;2023-03-14T03:53:38;15118.56;;;-142.83;81.75
9129;BME280;4599;50.906;6.786;2023-03-14T03:57:40;15094.03;;;-142.83;83.33
9129;BME280;4599;50.906;6.786;2023-03-14T04:01:42;15089.94;;;-142.83;82.88
9129;BME280;4599;50.906;6.786;2023-03-14T04:05:46;15085.84;;;-142.83;85.48
9129;BME280;4599;50.906;6.786;2023-03-14T04:09:48;15065.41;;;-142.83;85.50
9129;BME280;4599;50.906;6.786;2023-03-14T04:13:49;15073.59;;;-142.83;85.42
9129;BME280;4599;50.906;6.786;2023-03-14T04:17:51;15024.53;;;-142.83;87.12
9129;BME280;4599;50.906;6.786;2023-03-14T04:21:58;15022.50;;;-142.83;89.13
9129;BME280;4599;50.906;6.786;2023-03-14T04:26:01;15026.56;;;-142.83;88.98
9129;BME280;4599;50.906;6.786;2023-03-14T04:30:03;15012.28;;;-142.83;90.26
9129;BME280;4599;50.906;6.786;2023-03-14T04:34:05;15049.06;;;-142.83;89.06
9129;BME280;4599;50.906;6.786;2023-03-14T04:38:08;15026.56;;;-142.83;90.27
9129;BME280;4599;50.906;6.786;2023-03-14T04:42:09;15016.34;;;-142.83;89.81
9129;BME280;4599;50.906;6.786;2023-03-14T04:46:11;15006.13;;;-142.83;89.40
9129;BME280;4599;50.906;6.786;2023-03-14T04:50:13;15008.19;;;-142.83;89.78
9129;BME280;4599;50.906;6.786;2023-03-14T04:54:16;15002.03;;;-142.83;90.11
9129;BME280;4599;50.906;6.786;2023-03-14T04:58:18;15014.31;;;-142.83;90.16
9129;BME280;4599;50.906;6.786;2023-03-14T05:02:19;15057.25;;;-142.83;89.41
9129;BME280;4599;50.906;6.786;2023-03-14T05:06:21;15026.56;;;-142.83;89.43
9129;BME280;4599;50.906;6.786;2023-03-14T05:10:27;15024.53;;;-142.83;88.18
9129;BME280;4599;50.906;6.786;2023-03-14T05:14:28;15053.16;;;-142.83;86.61
9129;BME280;4599;50.906;6.786;2023-03-14T05:18:30;15065.41;;;-142.83;85.52
9129;BME280;4599;50.906;6.786;2023-03-14T05:22:32;15047.03;;;-142.83;86.69
9129;BME280;4599;50.906;6.786;2023-03-14T05:26:35;15081.78;;;-142.83;85.48
9129;BME280;4599;50.906;6.786;2023-03-14T05:30:36;15083.81;;;-142.83;85.27
9129;BME280;4599;50.906;6.786;2023-03-14T05:34:38;15100.16;;;-142.83;85.62
9129;BME280;4599;50.906;6.786;2023-03-14T05:38:39;15073.59;;;-142.83;84.53
9129;BME280;4599;50.906;6.786;2023-03-14T05:42:45;15106.31;;;-142.83;84.09
9129;BME280;4599;50.906;6.786;2023-03-14T05:46:46;15063.38;;;-142.83;84.83
9129;BME280;4599;50.906;6.786;2023-03-14T05:50:53;15085.84;;;-142.83;83.88
9129;BME280;4599;50.906;6.786;2023-03-14T05:54:55;15065.41;;;-142.83;84.03
9129;BME280;4599;50.906;6.786;2023-03-14T05:58:58;15069.50;;;-142.83;85.79
9129;BME280;4599;50.906;6.786;2023-03-14T06:03:00;15061.31;;;-142.83;87.05
9129;BME280;4599;50.906;6.786;2023-03-14T06:07:02;15069.50;;;-142.83;86.11
9129;BME280;4599;50.906;6.786;2023-03-14T06:11:04;15075.63;;;-142.83;86.83
9129;BME280;4599;50.906;6.786;2023-03-14T06:15:09;15053.16;;;-142.83;88.12
9129;BME280;4599;50.906;6.786;2023-03-14T06:19:10;15079.72;;;-142.83;86.94
9129;BME280;4599;50.906;6.786;2023-03-14T06:23:12;15075.63;;;-142.83;87.22
9129;BME280;4599;50.906;6.786;2023-03-14T06:27:13;15049.06;;;-142.83;87.02
9129;BME280;4599;50.906;6.786;2023-03-14T06:31:16;15057.25;;;-142.83;86.37
9129;BME280;4599;50.906;6.786;2023-03-14T06:35:18;15061.31;;;-142.83;86.11
9129;BME280;4599;50.906;6.786;2023-03-14T06:39:20;15077.69;;;-142.83;84.50
9129;BME280;4599;50.906;6.786;2023-03-14T06:43:21;15128.78;;;-142.83;83.35
9129;BME280;4599;50.906;6.786;2023-03-14T06:47:27;15096.09;;;-142.83;83.10
9129;BME280;4599;50.906;6.786;2023-03-14T06:51:28;15110.38;;;-142.83;82.04
9129;BME280;4599;50.906;6.786;2023-03-14T06:55:30;15110.38;;;-142.83;81.83
9129;BME280;4599;50.906;6.786;2023-03-14T06:59:32;15102.22;;;-142.83;83.03
9129;BME280;4599;50.906;6.786;2023-03-14T07:03:34;15134.91;;;-142.83;83.62
9129;BME280;4599;50.906;6.786;2023-03-14T07:07:36;15096.09;;;-142.83;83.99
9129;BME280;4599;50.906;6.786;2023-03-14T07:11:38;15112.44;;;-142.83;82.66
9129;BME280;4599;50.906;6.786;2023-03-14T07:15:40;15077.69;;;-142.83;84.52
9129;BME280;4599;50.906;6.786;2023-03-14T07:19:43;15118.56;;;-142.83;82.82
9129;BME280;4599;50.906;6.786;2023-03-14T07:23:45;15094.03;;;-142.83;83.53
9129;BME280;4599;50.906;6.786;2023-03-14T07:27:47;15092.00;;;-142.83;83.32
9129;BME280;4599;50.906;6.786;2023-03-14T07:31:49;15110.38;;;-142.83;82.82
9129;BME280;4599;50.906;6.786;2023-03-14T07:35:52;15114.47;;;-142.83;82.07
9129;BME280;4599;50.906;6.786;2023-03-14T07:39:53;15120.63;;;-142.83;81.44
9129;BME280;4599;50.906;6.786;2023-03-14T07:43:55;15110.38;;;-142.83;82.45
9129;BME280;4599;50.906;6.786;2023-03-14T07:47:56;15163.53;;;-142.83;82.45
9129;BME280;4599;50.906;6.786;2023-03-14T07:51:59;15130.84;;;-142.83;82.82
9129;BME280;4599;50.906;6.786;2023-03-14T07:56:00;15112.44;;;-142.83;82.27
9129;BME280;4599;50.906;6.786;2023-03-14T08:00:02;15132.88;;;-142.83;82.45
9129;BME280;4599;50.906;6.786;2023-03-14T08:04:04;15118.56;;;-142.83;83.75
9129;BME280;4599;50.906;6.786;2023-03-14T08:08:08;15110.38;;;-142.83;84.92
9129;BME280;4599;50.906;6.786;2023-03-14T08:12:09;15126.75;;;-142.83;84.25
9129;BME280;4599;50.906;6.786;2023-03-14T08:16:11;15083.81;;;-142.83;85.04
9129;BME280;4599;50.906;6.786;2023-03-14T08:20:12;15102.22;;;-142.83;84.53
9129;BME280;4599;50.906;6.786;2023-03-14T08:24:15;15110.38;;;-142.83;82.13
9129;BME280;4599;50.906;6.786;2023-03-14T08:28:17;15118.56;;;-142.83;81.50
9129;BME280;4599;50.906;6.786;2023-03-14T08:32:19;15151.28;;;-142.83;80.34
9129;BME280;4599;50.906;6.786;2023-03-14T08:36:22;15179.91;;;-142.83;80.61
9129;BME280;4599;50.906;6.786;2023-03-14T08:40:28;15159.44;;;-142.83;79.62
9129;BME280;4599;50.906;6.786;2023-03-14T08:44:29;15175.81;;;-142.83;79.62
9129;BME280;4599;50.906;6.786;2023-03-14T08:48:31;15151.28;;;-142.83;79.51
9129;BME280;4599;50.906;6.786;2023-03-14T08:52:33;15089.94;;;-142.83;83.08
9129;BME280;4599;50.906;6.786;2023-03-14T08:56:36;15085.84;;;-142.83;85.95
9129;BME280;4599;50.906;6.786;2023-03-14T09:00:38;15067.47;;;-142.83;87.88
9129;BME280;4599;50.906;6.786;2023-03-14T09:04:40;15036.81;;;-142.83;90.27
9129;BME280;4599;50.906;6.786;2023-03-14T09:08:41;15061.31;;;-142.83;90.42
9129;BME280;4599;50.906;6.786;2023-03-14T09:12:44;15022.50;;;-142.83;90.20
9129;BME280;4599;50.906;6.786;2023-03-14T09:16:45;15038.84;;;-142.83;92.14
9129;BME280;4599;50.906;6.786;2023-03-14T09:20:47;15028.63;;;-142.83;91.08
9129;BME280;4599;50.906;6.786;2023-03-14T09:24:49;15032.72;;;-142.83;90.50
9129;BME280;4599;50.906;6.786;2023-03-14T09:28:52;15002.03;;;-142.83;91.87
9129;BME280;4599;50.906;6.786;2023-03-14T09:32:54;15016.34;;;-142.83;90.46
9129;BME280;4599;50.906;6.786;2023-03-14T09:36:55;15024.53;;;-142.83;89.90
9129;BME280;4599;50.906;6.786;2023-03-14T09:40:58;15026.56;;;-142.83;89.93
9129;BME280;4599;50.906;6.786;2023-03-14T09:45:04;14995.91;;;-142.83;91.61
9129;BME280;4599;50.906;6.786;2023-03-14T09:49:10;15008.19;;;-142.83;91.07
9129;BME280;4599;50.906;6.786;2023-03-14T09:53:17;15020.44;;;-142.83;91.53
9129;BME280;4599;50.906;6.786;2023-03-14T09:57:21;15004.09;;;-142.83;92.51
9129;BME280;4599;50.906;6.786;2023-03-14T10:01:28;15024.53;;;-142.83;92.07
9129;BME280;4599;50.906;6.786;2023-03-14T10:05:33;15016.34;;;-142.83;91.29
9129;BME280;4599;50.906;6.786;2023-03-14T10:09:34;15024.53;;;-142.83;92.32
9129;BME280;4599;50.906;6.786;2023-03-14T10:13:47;15049.06;;;-142.83;90.33
9129;BME280;4599;50.906;6.786;2023-03-14T10:17:51;15036.81;;;-142.83;88.44
9129;BME280;4599;50.906;6.786;2023-03-14T10:21:53;15057.25;;;-142.83;90.04
9129;BME280;4599;50.906;6.786;2023-03-14T10:26:04;15044.97;;;-142.83;89.67
9129;BME280;4599;50.906;6.786;2023-03-14T10:30:27;15036.81;;;-142.83;89.64
9129;BME280;4599;50.906;6.786;2023-03-14T10:34:34;15040.88;;;-142.83;90.15
9129;BME280;4599;50.906;6.786;2023-03-14T10:38:36;15034.75;;;-142.83;91.55
9129;BME280;4599;50.906;6.786;2023-03-14T10:42:40;15049.06;;;-142.83;89.60
9129;BME280;4599;50.906;6.786;2023-03-14T10:46:44;15057.25;;;-142.83;91.21
9129;BME280;4599;50.906;6.786;2023-03-14T10:50:55;15038.84;;;-142.83;90.66
9129;BME280;4599;50.906;6.786;2023-03-14T10:54:58;15018.41;;;-142.83;90.44
9129;BME280;4599;50.906;6.786;2023-03-14T10:58:59;15044.97;;;-142.83;90.57
9129;BME280;4599;50.906;6.786;2023-03-14T11:03:08;15034.75;;;-142.83;90.86
9129;BME280;4599;50.906;6.786;2023-03-14T11:07:16;15053.16;;;-142.83;90.64
9129;BME280;4599;50.906;6.786;2023-03-14T11:11:23;15059.28;;;-142.83;89.73
9129;BME280;4599;50.906;6.786;2023-03-14T11:15:31;15036.81;;;-142.83;89.93
9129;BME280;4599;50.906;6.786;2023-03-14T11:24:15;15094.03;;;-142.83;89.74
9129;BME280;4599;50.906;6.786;2023-03-14T11:28:24;15085.84;;;-142.83;87.13
9129;BME280;4599;50.906;6.786;2023-03-14T11:32:36;15075.63;;;-142.83;86.95
9129;BME280;4599;50.906;6.786;2023-03-14T11:36:46;15108.34;;;-142.83;84.39
9129;BME280;4599;50.906;6.786;2023-03-14T11:40:57;15102.22;;;-142.83;83.57
9129;BME280;4599;50.906;6.786;2023-03-14T11:45:00;15102.22;;;-142.83;85.10
9129;BME280;4599;50.906;6.786;2023-03-14T11:49:06;15096.09;;;-142.83;86.71
9129;BME280;4599;50.906;6.786;2023-03-14T11:53:16;15118.56;;;-142.83;88.08
9129;BME280;4599;50.906;6.786;2023-03-14T11:57:22;15094.03;;;-142.83;88.84
9129;BME280;4599;50.906;6.786;2023-03-14T12:01:29;15081.78;;;-142.83;89.86
9129;BME280;4599;50.906;6.786;2023-03-14T12:05:43;15110.38;;;-142.83;89.71
9129;BME280;4599;50.906;6.786;2023-03-14T12:09:48;15042.94;;;-142.83;89.70
9129;BME280;4599;50.906;6.786;2023-03-14T12:13:53;15065.41;;;-142.83;90.39
9129;BME280;4599;50.906;6.786;2023-03-14T12:17:55;15065.41;;;-142.83;87.62
9129;BME280;4599;50.906;6.786;2023-03-14T12:22:00;15089.94;;;-142.83;87.85
9129;BME280;4599;50.906;6.786;2023-03-14T12:26:08;15130.84;;;-142.83;85.77
9129;BME280;4599;50.906;6.786;2023-03-14T12:30:26;15104.25;;;-142.83;86.43
9129;BME280;4599;50.906;6.786;2023-03-14T12:34:29;15071.56;;;-142.83;85.27
9129;BME280;4599;50.906;6.786;2023-03-14T12:38:52;15106.31;;;-142.83;86.50
9129;BME280;4599;50.906;6.786;2023-03-14T12:43:00;15071.56;;;-142.83;85.97
9129;BME280;4599;50.906;6.786;2023-03-14T12:47:47;15110.38;;;-142.83;85.11
9129;BME280;4599;50.906;6.786;2023-03-14T12:51:58;15132.88;;;-142.83;84.06
9129;BME280;4599;50.906;6.786;2023-03-14T12:56:05;15128.78;;;-142.83;82.79
9129;BME280;4599;50.906;6.786;2023-03-14T13:00:19;15106.31;;;-142.83;84.15
9129;BME280;4599;50.906;6.786;2023-03-14T13:04:28;15085.84;;;-142.83;85.74
9129;BME280;4599;50.906;6.786;2023-03-14T13:08:41;15106.31;;;-142.83;84.48
9129;BME280;4599;50.906;6.786;2023-03-14T13:12:48;15134.91;;;-142.83;84.92
9129;BME280;4599;50.906;6.786;2023-03-14T13:16:51;15130.84;;;-142.83;83.18
9129;BME280;4599;50.906;6.786;2023-03-14T13:20:56;15120.63;;;-142.83;82.88
9129;BME280;4599;50.906;6.786;2023-03-14T13:25:00;15175.81;;;-142.83;81.61
9129;BME280;4599;50.906;6.786;2023-03-14T13:29:09;15161.50;;;-142.83;80.83
9129;BME280;4599;50.906;6.786;2023-03-14T13:33:13;15110.38;;;-142.83;82.38
9129;BME280;4599;50.906;6.786;2023-03-14T13:37:20;15161.50;;;-142.83;80.91
9129;BME280;4599;50.906;6.786;2023-03-14T13:41:23;15114.47;;;-142.83;85.30
9129;BME280;4599;50.906;6.786;2023-03-14T13:45:25;15134.91;;;-142.83;85.01
9129;BME280;4599;50.906;6.786;2023-03-14T13:49:29;15126.75;;;-142.83;85.90
9129;BME280;4599;50.906;6.786;2023-03-14T13:53:42;15161.50;;;-142.83;84.36
9129;BME280;4599;50.906;6.786;2023-03-14T13:57:47;15077.69;;;-142.83;87.01
9129;BME280;4599;50.906;6.786;2023-03-14T14:01:50;15130.84;;;-142.83;84.76
9129;BME280;4599;50.906;6.786;2023-03-14T14:05:55;15118.56;;;-142.83;85.75
9129;BME280;4599;50.906;6.786;2023-03-14T14:09:59;15132.88;;;-142.83;83.27
9129;BME280;4599;50.906;6.786;2023-03-14T14:14:01;15134.91;;;-142.83;83.55
9129;BME280;4599;50.906;6.786;2023-03-14T14:18:04;15134.91;;;-142.83;82.63
9129;BME280;4599;50.906;6.786;2023-03-14T14:22:08;15159.44;;;-142.83;83.22
9129;BME280;4599;50.906;6.786;2023-03-14T14:26:16;15153.31;;;-142.83;82.05
9129;BME280;4599;50.906;6.786;2023-03-14T14:30:27;15147.19;;;-142.83;83.10
9129;BME280;4599;50.906;6.786;2023-03-14T14:34:38;15139.00;;;-142.83;82.77
9129;BME280;4599;50.906;6.786;2023-03-14T14:38:40;15167.63;;;-142.83;81.49
9129;BME280;4599;50.906;6.786;2023-03-14T14:42:45;15175.81;;;-142.83;80.34
9129;BME280;4599;50.906;6.786;2023-03-14T14:46:49;15171.72;;;-142.83;80.06
9129;BME280;4599;50.906;6.786;2023-03-14T14:50:58;15169.69;;;-142.83;82.32
9129;BME280;4599;50.906;6.786;2023-03-14T14:55:01;15212.59;;;-142.83;77.78
9129;BME280;4599;50.906;6.786;2023-03-14T14:59:05;15181.94;;;-142.83;79.83
9129;BME280;4599;50.906;6.786;2023-03-14T15:03:12;15210.56;;;-142.83;77.20
9129;BME280;4599;50.906;6.786;2023-03-14T15:07:16;15220.78;;;-142.83;75.70
9129;BME280;4599;50.906;6.786;2023-03-14T15:11:19;15231.00;;;-142.83;75.25
9129;BME280;4599;50.906;6.786;2023-03-14T15:15:25;15220.78;;;-142.83;76.66
9129;BME280;4599;50.906;6.786;2023-03-14T15:19:27;15204.44;;;-142.83;75.40
9129;BME280;4599;50.906;6.786;2023-03-14T15:23:29;15245.31;;;-142.83;75.72
9129;BME280;4599;50.906;6.786;2023-03-14T15:27:34;15192.16;;;-142.83;78.04
9129;BME280;4599;50.906;6.786;2023-03-14T15:31:37;15183.97;;;-142.83;78.75
9129;BME280;4599;50.906;6.786;2023-03-14T15:35:39;15200.34;;;-142.83;79.28
9129;BME280;4599;50.906;6.786;2023-03-14T15:39:41;15192.16;;;-142.83;79.65
9129;BME280;4599;50.906;6.786;2023-03-14T15:43:42;15167.63;;;-142.83;80.22
9129;BME280;4599;50.906;6.786;2023-03-14T15:47:46;15206.47;;;-142.83;80.13
9129;BME280;4599;50.906;6.786;2023-03-14T15:51:47;15206.47;;;-142.83;80.15
9129;BME280;4599;50.906;6.786;2023-03-14T15:55:49;15188.06;;;-142.83;81.17
9129;BME280;4599;50.906;6.786;2023-03-14T15:59:50;15188.06;;;-142.83;79.86
9129;BME280;4599;50.906;6.786;2023-03-14T16:03:55;15181.94;;;-142.83;80.58
9129;BME280;4599;50.906;6.786;2023-03-14T16:07:56;15200.34;;;-142.83;78.30
9129;BME280;4599;50.906;6.786;2023-03-14T16:11:58;15235.09;;;-142.83;77.91
9129;BME280;4599;50.906;6.786;2023-03-14T16:16:01;15216.69;;;-142.83;79.14
9129;BME280;4599;50.906;6.786;2023-03-14T16:20:07;15177.84;;;-142.83;79.85
9129;BME280;4599;50.906;6.786;2023-03-14T16:24:08;15208.50;;;-142.83;80.26
9129;BME280;4599;50.906;6.786;2023-03-14T16:28:10;15188.06;;;-142.83;79.22
9129;BME280;4599;50.906;6.786;2023-03-14T16:32:12;15179.91;;;-142.83;80.31
9129;BME280;4599;50.906;6.786;2023-03-14T16:36:15;15208.50;;;-142.83;79.08
9129;BME280;4599;50.906;6.786;2023-03-14T16:40:48;15190.13;;;-142.83;80.81
9129;BME280;4599;50.906;6.786;2023-03-14T16:44:55;15175.81;;;-142.83;79.72
9129;BME280;4599;50.906;6.786;2023-03-14T16:48:57;15163.53;;;-142.83;81.69
9129;BME280;4599;50.906;6.786;2023-03-14T16:52:59;15171.72;;;-142.83;81.14
9129;BME280;4599;50.906;6.786;2023-03-14T16:57:01;15300.50;;;-142.83;70.62
9129;BME280;4599;50.906;6.786;2023-03-14T17:01:04;15400.69;;;-142.83;63.49
9129;BME280;4599;50.906;6.786;2023-03-14T17:05:06;15412.94;;;-142.83;63.89
9129;BME280;4599;50.906;6.786;2023-03-14T17:09:09;15431.34;;;-142.83;62.60
9129;BME280;4599;50.906;6.786;2023-03-14T17:13:11;15412.94;;;-142.83;62.90
9129;BME280;4599;50.906;6.786;2023-03-14T17:17:13;15412.94;;;-142.83;63.92
9129;BME280;4599;50.906;6.786;2023-03-14T17:21:15;15457.94;;;-142.83;59.82
9129;BME280;4599;50.906;6.786;2023-03-14T17:25:18;15459.97;;;-142.83;58.32
9129;BME280;4599;50.906;6.786;2023-03-14T17:29:20;15498.81;;;-142.83;58.46
9129;BME280;4599;50.906;6.786;2023-03-14T17:33:21;15474.28;;;-142.83;58.38
9129;BME280;4599;50.906;6.786;2023-03-14T17:37:23;15449.75;;;-142.83;61.07
9129;BME280;4599;50.906;6.786;2023-03-14T17:41:26;15468.16;;;-142.83;58.09
9129;BME280;4599;50.906;6.786;2023-03-14T17:45:29;15462.00;;;-142.83;59.70
9129;BME280;4599;50.906;6.786;2023-03-14T17:49:30;15474.28;;;-142.83;57.74
9129;BME280;4599;50.906;6.786;2023-03-14T17:53:32;15482.47;;;-142.83;58.34
9129;BME280;4599;50.906;6.786;2023-03-14T17:57:36;15509.03;;;-142.83;58.37
9129;BME280;4599;50.906;6.786;2023-03-14T18:01:38;15470.19;;;-142.83;59.76
9129;BME280;4599;50.906;6.786;2023-03-14T18:05:40;15472.25;;;-142.83;59.35
9129;BME280;4599;50.906;6.786;2023-03-14T18:09:42;15464.06;;;-142.83;58.55
9129;BME280;4599;50.906;6.786;2023-03-14T18:13:45;15484.50;;;-142.83;58.61
9129;BME280;4599;50.906;6.786;2023-03-14T18:17:46;15482.47;;;-142.83;58.71
9129;BME280;4599;50.906;6.786;2023-03-14T18:21:48;15447.69;;;-142.83;60.92
9129;BME280;4599;50.906;6.786;2023-03-14T18:25:50;15462.00;;;-142.83;60.52
9129;BME280;4599;50.906;6.786;2023-03-14T18:29:54;15441.56;;;-142.83;61.23
9129;BME280;4599;50.906;6.786;2023-03-14T18:33:56;15466.09;;;-142.83;59.94
9129;BME280;4599;50.906;6.786;2023-03-14T18:37:58;15453.84;;;-142.83;59.50
9129;BME280;4599;50.906;6.786;2023-03-14T18:41:59;15466.09;;;-142.83;58.83
9129;BME280;4599;50.906;6.786;2023-03-14T18:46:03;15502.91;;;-142.83;58.80
9129;BME280;4599;50.906;6.786;2023-03-14T18:50:06;15480.41;;;-142.83;58.65
9129;BME280;4599;50.906;6.786;2023-03-14T18:54:09;15502.91;;;-142.83;58.46
9129;BME280;4599;50.906;6.786;2023-03-14T18:58:11;15476.31;;;-142.83;59.30
9129;BME280;4599;50.906;6.786;2023-03-14T19:02:14;15449.75;;;-142.83;59.82
9129;BME280;4599;50.906;6.786;2023-03-14T19:06:17;15470.19;;;-142.83;60.75
9129;BME280;4599;50.906;6.786;2023-03-14T19:10:19;15445.66;;;-142.83;61.16
9129;BME280;4599;50.906;6.786;2023-03-14T19:14:20;15478.38;;;-142.83;60.52
9129;BME280;4599;50.906;6.786;2023-03-14T19:18:23;15449.75;;;-142.83;61.44
9129;BME280;4599;50.906;6.786;2023-03-14T19:22:25;15486.53;;;-142.83;61.15
9129;BME280;4599;50.906;6.786;2023-03-14T19:26:27;15445.66;;;-142.83;62.15
9129;BME280;4599;50.906;6.786;2023-03-14T19:30:29;15396.59;;;-142.83;62.95
9129;BME280;4599;50.906;6.786;2023-03-14T19:34:34;15478.38;;;-142.83;62.80
9129;BME280;4599;50.906;6.786;2023-03-14T19:38:36;15439.53;;;-142.83;61.61
9129;BME280;4599;50.906;6.786;2023-03-14T19:42:37;15425.22;;;-142.83;62.66
9129;BME280;4599;50.906;6.786;2023-03-14T19:46:39;15429.31;;;-142.83;62.44
9129;BME280;4599;50.906;6.786;2023-03-14T19:50:44;15490.63;;;-142.83;61.37
9129;BME280;4599;50.906;6.786;2023-03-14T19:54:46;15457.94;;;-142.83;60.63
9129;BME280;4599;50.906;6.786;2023-03-14T19:58:48;15425.22;;;-142.83;60.98
9129;BME280;4599;50.906;6.786;2023-03-14T20:02:50;15459.97;;;-142.83;61.62
9129;BME280;4599;50.906;6.786;2023-03-14T20:06:55;15474.28;;;-142.83;61.75
9129;BME280;4599;50.906;6.786;2023-03-14T20:10:57;15466.09;;;-142.83;60.21
9129;BME280;4599;50.906;6.786;2023-03-14T20:14:59;15453.84;;;-142.83;60.11
9129;BME280;4599;50.906;6.786;2023-03-14T20:19:03;15511.09;;;-142.83;59.61
9129;BME280;4599;50.906;6.786;2023-03-14T20:23:06;15425.22;;;-142.83;63.16
9129;BME280;4599;50.906;6.786;2023-03-14T20:27:07;15464.06;;;-142.83;60.06
9129;BME280;4599;50.906;6.786;2023-03-14T20:31:09;15437.47;;;-142.83;62.55
9129;BME280;4599;50.906;6.786;2023-03-14T20:35:11;15437.47;;;-142.83;64.87
9129;BME280;4599;50.906;6.786;2023-03-14T20:39:14;15421.13;;;-142.83;64.79
9129;BME280;4599;50.906;6.786;2023-03-14T20:43:16;15435.44;;;-142.83;63.24
9129;BME280;4599;50.906;6.786;2023-03-14T20:47:17;15421.13;;;-142.83;63.08
9129;BME280;4599;50.906;6.786;2023-03-14T20:51:20;15478.38;;;-142.83;62.96
9129;BME280;4599;50.906;6.786;2023-03-14T20:55:23;15410.91;;;-142.83;66.60
9129;BME280;4599;50.906;6.786;2023-03-14T20:59:25;15349.56;;;-142.83;68.51
9129;BME280;4599;50.906;6.786;2023-03-14T21:03:27;15386.38;;;-142.83;69.87
9129;BME280;4599;50.906;6.786;2023-03-14T21:07:36;15404.78;;;-142.83;68.69
9129;BME280;4599;50.906;6.786;2023-03-14T21:11:39;15372.06;;;-142.83;70.69
9129;BME280;4599;50.906;6.786;2023-03-14T21:15:41;15343.44;;;-142.83;70.98
9129;BME280;4599;50.906;6.786;2023-03-14T21:19:43;15384.31;;;-142.83;70.92
9129;BME280;4599;50.906;6.786;2023-03-14T21:23:45;15351.63;;;-142.83;71.75
9129;BME280;4599;50.906;6.786;2023-03-14T21:27:47;15347.53;;;-142.83;72.50
9129;BME280;4599;50.906;6.786;2023-03-14T21:31:49;15361.84;;;-142.83;73.25
9129;BME280;4599;50.906;6.786;2023-03-14T21:35:51;15347.53;;;-142.83;72.99